createdAt,value
2017-11-28T00:00:04.986Z,6.42
2017-11-28T00:01:32.032Z,6.42
2017-11-28T00:02:58.951Z,6.41
2017-11-28T00:04:25.279Z,6.41
2017-11-28T00:05:52.532Z,6.41
2017-11-28T00:07:19.726Z,6.40
2017-11-28T00:08:47.456Z,6.39
2017-11-28T00:10:13.799Z,6.39
2017-11-28T00:11:42.285Z,6.38
2017-11-28T00:13:11.690Z,6.37
2017-11-28T00:14:35.772Z,6.38
2017-11-28T00:16:03.739Z,6.36
2017-11-28T00:17:30.948Z,6.36
2017-11-28T00:18:57.180Z,6.37
2017-11-28T00:20:24.516Z,6.38
2017-11-28T00:21:52.866Z,6.38
2017-11-28T00:23:19.127Z,6.38
2017-11-28T00:24:46.516Z,6.37
2017-11-28T00:26:14.959Z,6.37
2017-11-28T00:27:41.194Z,6.37
2017-11-28T00:29:08.474Z,6.38
2017-11-28T00:30:36.475Z,6.38
2017-11-28T00:32:03.506Z,6.38
2017-11-28T00:33:29.636Z,6.38
2017-11-28T00:34:57.960Z,6.38
2017-11-28T00:36:24.331Z,6.37
2017-11-28T00:37:52.589Z,6.38
2017-11-28T00:39:18.169Z,6.37
2017-11-28T00:40:46.605Z,6.36
2017-11-28T00:42:12.875Z,6.36
2017-11-28T00:43:41.106Z,6.35
2017-11-28T00:45:08.410Z,6.36
2017-11-28T00:46:34.733Z,6.36
2017-11-28T00:48:02.988Z,6.37
2017-11-28T00:49:29.122Z,6.37
2017-11-28T00:50:56.422Z,6.37
2017-11-28T00:52:23.852Z,6.37
2017-11-28T00:53:51.096Z,6.37
2017-11-28T00:55:19.526Z,6.38
2017-11-28T00:56:45.817Z,6.38
2017-11-28T00:58:13.107Z,6.39
2017-11-28T00:59:41.478Z,6.39
2017-11-28T01:01:08.121Z,6.41
2017-11-28T01:02:34.293Z,6.40
2017-11-28T01:04:01.762Z,6.40
2017-11-28T01:05:29.747Z,6.40
2017-11-28T01:06:57.041Z,6.40
2017-11-28T01:08:22.929Z,6.40
2017-11-28T01:09:51.138Z,6.41
2017-11-28T01:11:17.439Z,6.42
2017-11-28T01:12:45.543Z,6.43
2017-11-28T01:14:11.797Z,6.43
2017-11-28T01:15:39.071Z,6.45
2017-11-28T01:17:06.344Z,6.45
2017-11-28T01:18:33.432Z,6.45
2017-11-28T01:20:01.763Z,6.46
2017-11-28T01:21:28.244Z,6.46
2017-11-28T01:22:55.549Z,6.46
2017-11-28T01:24:22.896Z,6.47
2017-11-28T01:25:49.664Z,6.47
2017-11-28T01:27:17.417Z,6.47
2017-11-28T01:28:43.580Z,6.46
2017-11-28T01:30:11.726Z,6.46
2017-11-28T01:31:38.162Z,6.47
2017-11-28T01:33:04.723Z,6.48
2017-11-28T01:34:32.023Z,6.47
2017-11-28T01:36:00.237Z,6.47
2017-11-28T01:37:26.158Z,6.47
2017-11-28T01:38:53.493Z,6.47
2017-11-28T01:40:20.801Z,6.48
2017-11-28T01:41:47.606Z,6.48
2017-11-28T01:43:15.390Z,6.49
2017-11-28T01:44:42.506Z,6.50
2017-11-28T01:46:08.260Z,6.49
2017-11-28T01:47:35.208Z,6.50
2017-11-28T01:49:03.392Z,6.51
2017-11-28T01:50:29.474Z,6.52
2017-11-28T01:51:56.760Z,6.53
2017-11-28T01:53:24.940Z,6.54
2017-11-28T01:54:52.223Z,6.55
2017-11-28T01:56:18.957Z,6.57
2017-11-28T01:57:45.276Z,6.58
2017-11-28T01:59:11.400Z,6.58
2017-11-28T02:00:39.776Z,6.58
2017-11-28T02:02:05.884Z,6.57
2017-11-28T02:03:34.081Z,6.58
2017-11-28T02:05:00.326Z,6.59
2017-11-28T02:06:28.703Z,6.59
2017-11-28T02:07:55.047Z,6.60
2017-11-28T02:09:23.305Z,6.61
2017-11-28T02:10:50.726Z,6.61
2017-11-28T02:12:17.863Z,6.61
2017-11-28T02:13:44.180Z,6.61
2017-11-28T02:15:11.332Z,6.61
2017-11-28T02:16:38.607Z,6.61
2017-11-28T02:18:06.378Z,6.62
2017-11-28T02:19:33.529Z,6.62
2017-11-28T02:20:59.285Z,6.63
2017-11-28T02:22:26.246Z,6.63
2017-11-28T02:23:54.381Z,6.63
2017-11-28T02:25:20.332Z,6.63
2017-11-28T02:26:47.274Z,6.59
2017-11-28T02:28:15.592Z,6.60
2017-11-28T02:29:41.923Z,6.62
2017-11-28T02:31:09.231Z,6.63
2017-11-28T02:32:36.576Z,6.64
2017-11-28T02:34:04.098Z,6.63
2017-11-28T02:35:30.160Z,6.64
2017-11-28T02:36:58.069Z,6.64
2017-11-28T02:38:23.758Z,6.64
2017-11-28T02:39:51.213Z,6.65
2017-11-28T02:41:18.228Z,6.64
2017-11-28T02:42:45.358Z,6.64
2017-11-28T02:44:12.361Z,6.64
2017-11-28T02:45:39.096Z,6.64
2017-11-28T02:47:06.251Z,6.63
2017-11-28T02:48:33.418Z,6.63
2017-11-28T02:50:01.498Z,6.63
2017-11-28T02:51:28.788Z,6.63
2017-11-28T02:52:54.705Z,6.62
2017-11-28T02:54:21.954Z,6.61
2017-11-28T02:55:49.323Z,6.60
2017-11-28T02:57:16.269Z,6.60
2017-11-28T02:58:43.636Z,6.60
2017-11-28T03:00:10.793Z,6.59
2017-11-28T03:01:39.174Z,6.59
2017-11-28T03:03:06.278Z,6.59
2017-11-28T03:04:33.589Z,6.59
2017-11-28T03:05:59.509Z,6.59
2017-11-28T03:07:26.695Z,6.59
2017-11-28T03:08:54.141Z,6.60
2017-11-28T03:10:21.119Z,6.59
2017-11-28T03:11:49.324Z,6.58
2017-11-28T03:13:16.496Z,6.58
2017-11-28T03:14:43.807Z,6.57
2017-11-28T03:16:10.084Z,6.57
2017-11-28T03:17:37.518Z,6.55
2017-11-28T03:19:04.589Z,6.54
2017-11-28T03:20:31.546Z,6.53
2017-11-28T03:21:58.482Z,6.52
2017-11-28T03:23:27.009Z,6.52
2017-11-28T03:24:52.857Z,6.52
2017-11-28T03:26:20.079Z,6.52
2017-11-28T03:27:46.713Z,6.52
2017-11-28T03:29:14.051Z,6.53
2017-11-28T03:30:41.414Z,6.52
2017-11-28T03:32:08.519Z,6.51
2017-11-28T03:33:36.850Z,6.49
2017-11-28T03:35:03.131Z,6.47
2017-11-28T03:36:30.287Z,6.45
2017-11-28T03:37:57.397Z,6.44
2017-11-28T03:39:25.099Z,6.42
2017-11-28T03:40:52.412Z,6.39
2017-11-28T03:42:18.321Z,6.35
2017-11-28T03:43:46.817Z,6.32
2017-11-28T03:45:13.740Z,6.30
2017-11-28T03:46:41.043Z,6.27
2017-11-28T03:48:08.342Z,6.26
2017-11-28T03:49:35.276Z,6.24
2017-11-28T03:51:01.366Z,6.22
2017-11-28T03:52:28.301Z,6.20
2017-11-28T03:53:55.329Z,6.17
2017-11-28T03:55:22.477Z,6.16
2017-11-28T03:56:49.702Z,6.14
2017-11-28T03:58:17.257Z,6.13
2017-11-28T03:59:43.912Z,6.10
2017-11-28T04:01:10.173Z,6.09
2017-11-28T04:02:38.391Z,6.08
2017-11-28T04:04:04.524Z,6.07
2017-11-28T04:05:32.844Z,6.05
2017-11-28T04:07:00.018Z,6.05
2017-11-28T04:08:29.289Z,6.03
2017-11-28T04:09:53.727Z,6.03
2017-11-28T04:11:21.012Z,6.03
2017-11-28T04:12:49.297Z,6.03
2017-11-28T04:14:15.751Z,6.04
2017-11-28T04:15:43.163Z,6.05
2017-11-28T04:17:10.864Z,6.07
2017-11-28T04:18:38.020Z,6.09
2017-11-28T04:20:04.324Z,6.10
2017-11-28T04:21:32.580Z,6.10
2017-11-28T04:22:59.590Z,6.11
2017-11-28T04:24:25.528Z,6.12
2017-11-28T04:25:52.777Z,6.13
2017-11-28T04:27:20.514Z,6.15
2017-11-28T04:28:47.944Z,6.16
2017-11-28T04:30:15.237Z,6.18
2017-11-28T04:31:41.742Z,6.19
2017-11-28T04:33:08.249Z,6.20
2017-11-28T04:34:35.517Z,6.20
2017-11-28T04:36:02.270Z,6.20
2017-11-28T04:37:29.268Z,6.19
2017-11-28T04:38:56.403Z,6.20
2017-11-28T04:40:24.734Z,6.21
2017-11-28T04:41:52.050Z,6.22
2017-11-28T04:43:19.043Z,6.21
2017-11-28T04:44:44.893Z,6.22
2017-11-28T04:46:12.389Z,6.23
2017-11-28T04:47:38.347Z,6.23
2017-11-28T04:49:06.563Z,6.24
2017-11-28T04:50:32.622Z,6.24
2017-11-28T04:51:59.844Z,6.24
2017-11-28T04:53:28.314Z,6.23
2017-11-28T04:54:55.367Z,6.23
2017-11-28T04:56:22.653Z,6.22
2017-11-28T04:57:48.980Z,6.22
2017-11-28T04:59:17.353Z,6.22
2017-11-28T05:00:44.697Z,6.22
2017-11-28T05:02:10.813Z,6.21
2017-11-28T05:03:38.148Z,6.19
2017-11-28T05:05:06.093Z,6.18
2017-11-28T05:06:32.229Z,6.17
2017-11-28T05:08:00.356Z,6.17
2017-11-28T05:09:27.383Z,6.16
2017-11-28T05:10:53.400Z,6.16
2017-11-28T05:12:20.891Z,6.15
2017-11-28T05:13:47.656Z,6.13
2017-11-28T05:15:15.949Z,6.10
2017-11-28T05:16:43.420Z,6.10
2017-11-28T05:18:09.597Z,6.09
2017-11-28T05:19:37.867Z,6.08
2017-11-28T05:21:04.094Z,6.07
2017-11-28T05:22:31.034Z,6.07
2017-11-28T05:23:57.216Z,6.04
2017-11-28T05:25:25.553Z,6.02
2017-11-28T05:26:51.916Z,6.01
2017-11-28T05:28:18.444Z,6.02
2017-11-28T05:29:45.603Z,6.02
2017-11-28T05:31:13.682Z,6.00
2017-11-28T05:32:39.956Z,6.00
2017-11-28T05:34:08.130Z,6.00
2017-11-28T05:35:33.975Z,5.99
2017-11-28T05:37:01.013Z,5.99
2017-11-28T05:38:29.243Z,5.99
2017-11-28T05:39:55.479Z,5.99
2017-11-28T05:41:22.406Z,5.99
2017-11-28T05:42:50.013Z,5.98
2017-11-28T05:44:16.154Z,5.96
2017-11-28T05:45:44.681Z,5.95
2017-11-28T05:47:10.335Z,5.95
2017-11-28T05:48:37.398Z,5.97
2017-11-28T05:50:04.689Z,5.98
2017-11-28T05:51:32.038Z,5.99
2017-11-28T05:52:59.850Z,6.01
2017-11-28T05:54:26.212Z,6.02
2017-11-28T05:55:54.594Z,6.02
2017-11-28T05:57:21.901Z,6.01
2017-11-28T05:58:48.000Z,6.01
2017-11-28T06:00:16.318Z,5.98
2017-11-28T06:01:42.496Z,5.98
2017-11-28T06:03:09.368Z,5.98
2017-11-28T06:04:36.363Z,5.97
2017-11-28T06:06:04.412Z,5.97
2017-11-28T06:07:30.607Z,5.97
2017-11-28T06:08:59.087Z,5.96
2017-11-28T06:10:26.350Z,5.95
2017-11-28T06:11:52.490Z,5.94
2017-11-28T06:13:19.791Z,5.95
2017-11-28T06:14:47.005Z,5.95
2017-11-28T06:16:14.893Z,5.94
2017-11-28T06:17:40.793Z,5.93
2017-11-28T06:19:09.013Z,5.91
2017-11-28T06:20:34.784Z,5.90
2017-11-28T06:22:03.019Z,5.88
2017-11-28T06:23:29.039Z,5.86
2017-11-28T06:24:57.170Z,5.85
2017-11-28T06:26:24.589Z,5.84
2017-11-28T06:27:50.880Z,5.84
2017-11-28T06:29:18.155Z,5.85
2017-11-28T06:30:45.471Z,5.86
2017-11-28T06:32:12.714Z,5.86
2017-11-28T06:33:41.081Z,5.88
2017-11-28T06:35:08.072Z,5.87
2017-11-28T06:36:34.194Z,5.87
2017-11-28T06:38:02.274Z,5.87
2017-11-28T06:39:28.491Z,5.87
2017-11-28T06:40:55.878Z,5.89
2017-11-28T06:42:23.126Z,5.90
2017-11-28T06:43:50.096Z,5.91
2017-11-28T06:45:17.282Z,5.93
2017-11-28T06:46:44.444Z,5.93
2017-11-28T06:48:11.585Z,5.94
2017-11-28T06:49:38.942Z,5.96
2017-11-28T06:51:06.260Z,5.97
2017-11-28T06:52:33.435Z,5.98
2017-11-28T06:54:00.603Z,5.98
2017-11-28T06:55:27.923Z,5.99
2017-11-28T06:56:55.041Z,5.99
2017-11-28T06:58:22.377Z,5.99
2017-11-28T06:59:50.536Z,5.99
2017-11-28T07:01:16.788Z,6.00
2017-11-28T07:02:44.926Z,6.00
2017-11-28T07:04:11.005Z,5.99
2017-11-28T07:05:38.106Z,5.98
2017-11-28T07:07:06.204Z,5.97
2017-11-28T07:08:33.444Z,5.97
2017-11-28T07:10:00.639Z,5.96
2017-11-28T07:11:26.797Z,5.96
2017-11-28T07:12:54.085Z,5.94
2017-11-28T07:14:22.349Z,5.94
2017-11-28T07:15:49.677Z,5.94
2017-11-28T07:17:15.994Z,5.91
2017-11-28T07:18:44.032Z,5.90
2017-11-28T07:20:11.186Z,5.90
2017-11-28T07:21:37.265Z,5.89
2017-11-28T07:23:04.535Z,5.89
2017-11-28T07:24:32.775Z,5.88
2017-11-28T07:25:58.801Z,5.88
2017-11-28T07:27:26.148Z,5.87
2017-11-28T07:28:54.369Z,5.87
2017-11-28T07:30:21.654Z,5.87
2017-11-28T07:31:48.063Z,5.88
2017-11-28T07:33:15.514Z,5.87
2017-11-28T07:34:42.681Z,5.87
2017-11-28T07:36:10.995Z,5.87
2017-11-28T07:37:37.179Z,5.87
2017-11-28T07:39:04.446Z,5.86
2017-11-28T07:40:32.833Z,5.85
2017-11-28T07:41:58.839Z,5.86
2017-11-28T07:43:26.289Z,5.86
2017-11-28T07:44:53.556Z,5.86
2017-11-28T07:46:20.805Z,5.87
2017-11-28T07:47:48.084Z,5.87
2017-11-28T07:49:16.261Z,5.86
2017-11-28T07:50:42.668Z,5.86
2017-11-28T07:52:09.994Z,5.86
2017-11-28T07:53:37.297Z,5.86
2017-11-28T07:55:04.480Z,5.87
2017-11-28T07:56:31.888Z,5.87
2017-11-28T07:57:59.017Z,5.90
2017-11-28T07:59:26.255Z,5.91
2017-11-28T08:00:54.546Z,5.92
2017-11-28T08:02:21.445Z,5.94
2017-11-28T08:03:47.811Z,5.94
2017-11-28T08:05:15.038Z,5.95
2017-11-28T08:06:43.302Z,5.97
2017-11-28T08:08:09.625Z,5.99
2017-11-28T08:09:36.904Z,5.99
2017-11-28T08:11:05.184Z,6.01
2017-11-28T08:12:31.615Z,6.03
2017-11-28T08:13:58.660Z,6.05
2017-11-28T08:15:25.800Z,6.05
2017-11-28T08:16:53.124Z,6.07
2017-11-28T08:18:20.454Z,6.07
2017-11-28T08:19:48.939Z,6.08
2017-11-28T08:21:16.291Z,6.10
2017-11-28T08:22:42.556Z,6.11
2017-11-28T08:24:10.836Z,6.12
2017-11-28T08:25:36.904Z,6.13
2017-11-28T08:27:05.166Z,6.15
2017-11-28T08:28:32.347Z,6.16
2017-11-28T08:29:58.772Z,6.16
2017-11-28T08:31:26.036Z,6.17
2017-11-28T08:32:53.380Z,6.18
2017-11-28T08:34:20.702Z,6.21
2017-11-28T08:35:49.071Z,6.22
2017-11-28T08:37:16.380Z,6.22
2017-11-28T08:38:43.439Z,6.22
2017-11-28T08:40:10.632Z,6.20
2017-11-28T08:41:36.899Z,6.21
2017-11-28T08:43:05.031Z,6.21
2017-11-28T08:44:31.135Z,6.21
2017-11-28T08:45:58.316Z,6.23
2017-11-28T08:47:25.568Z,6.23
2017-11-28T08:48:52.771Z,6.24
2017-11-28T08:50:20.028Z,6.26
2017-11-28T08:51:47.346Z,6.26
2017-11-28T08:53:14.656Z,6.27
2017-11-28T08:54:43.002Z,6.29
2017-11-28T08:56:09.273Z,6.30
2017-11-28T08:57:36.547Z,6.30
2017-11-28T08:59:03.775Z,6.30
2017-11-28T09:00:30.919Z,6.30
2017-11-28T09:01:59.412Z,6.30
2017-11-28T09:03:26.599Z,6.31
2017-11-28T09:04:53.994Z,6.31
2017-11-28T09:06:20.232Z,6.32
2017-11-28T09:07:47.329Z,6.32
2017-11-28T09:09:14.579Z,6.32
2017-11-28T09:10:41.769Z,6.33
2017-11-28T09:12:09.105Z,6.33
2017-11-28T09:13:36.316Z,6.33
2017-11-28T09:15:04.667Z,6.33
2017-11-28T09:16:30.918Z,6.33
2017-11-28T09:17:59.069Z,6.33
2017-11-28T09:19:26.382Z,6.33
2017-11-28T09:20:52.742Z,6.32
2017-11-28T09:22:21.261Z,6.32
2017-11-28T09:23:48.428Z,6.31
2017-11-28T09:25:14.681Z,6.33
2017-11-28T09:26:41.927Z,6.33
2017-11-28T09:28:09.284Z,6.33
2017-11-28T09:29:37.506Z,6.33
2017-11-28T09:31:04.907Z,6.35
2017-11-28T09:32:31.031Z,6.36
2017-11-28T09:33:58.295Z,6.38
2017-11-28T09:35:25.385Z,6.39
2017-11-28T09:36:52.829Z,6.41
2017-11-28T09:38:20.099Z,6.42
2017-11-28T09:39:47.433Z,6.42
2017-11-28T09:41:15.686Z,6.43
2017-11-28T09:42:41.894Z,6.45
2017-11-28T09:44:09.226Z,6.46
2017-11-28T09:45:37.532Z,6.47
2017-11-28T09:47:04.736Z,6.48
2017-11-28T09:48:30.774Z,6.50
2017-11-28T09:49:58.096Z,6.51
2017-11-28T09:51:26.246Z,6.51
2017-11-28T09:52:52.475Z,6.49
2017-11-28T09:54:20.685Z,6.49
2017-11-28T09:55:47.084Z,6.48
2017-11-28T09:57:14.529Z,6.50
2017-11-28T09:58:41.693Z,6.52
2017-11-28T10:00:10.080Z,6.54
2017-11-28T10:01:37.210Z,6.55
2017-11-28T10:03:03.616Z,6.58
2017-11-28T10:04:31.760Z,6.60
2017-11-28T10:05:58.084Z,6.64
2017-11-28T10:07:26.295Z,6.65
2017-11-28T10:08:52.695Z,6.65
2017-11-28T10:10:19.978Z,6.66
2017-11-28T10:11:48.316Z,6.67
2017-11-28T10:13:14.674Z,6.66
2017-11-28T10:14:41.737Z,6.66
2017-11-28T10:16:08.951Z,6.66
2017-11-28T10:17:36.147Z,6.64
2017-11-28T10:19:04.405Z,6.64
2017-11-28T10:20:30.627Z,6.64
2017-11-28T10:21:58.968Z,6.66
2017-11-28T10:23:25.274Z,6.67
2017-11-28T10:24:52.624Z,6.69
2017-11-28T10:26:20.802Z,6.72
2017-11-28T10:27:48.079Z,6.73
2017-11-28T10:29:14.397Z,6.74
2017-11-28T10:30:41.676Z,6.73
2017-11-28T10:32:09.044Z,6.71
2017-11-28T10:33:36.232Z,6.71
2017-11-28T10:35:03.375Z,6.71
2017-11-28T10:36:30.616Z,6.72
2017-11-28T10:37:57.922Z,6.74
2017-11-28T10:39:26.217Z,6.79
2017-11-28T10:40:53.513Z,6.85
2017-11-28T10:42:19.629Z,6.91
2017-11-28T10:43:46.936Z,6.93
2017-11-28T10:45:14.129Z,6.95
2017-11-28T10:46:41.376Z,6.98
2017-11-28T10:48:09.690Z,7.02
2017-11-28T10:49:35.984Z,7.07
2017-11-28T10:51:04.322Z,7.11
2017-11-28T10:52:30.421Z,7.14
2017-11-28T10:53:57.816Z,7.15
2017-11-28T10:55:24.997Z,7.18
2017-11-28T10:56:52.251Z,7.18
2017-11-28T10:58:20.641Z,7.18
2017-11-28T10:59:48.018Z,7.17
2017-11-28T11:01:14.018Z,7.18
2017-11-28T11:02:42.243Z,7.17
2017-11-28T11:04:09.314Z,7.18
2017-11-28T11:05:35.506Z,7.20
2017-11-28T11:07:02.755Z,7.23
2017-11-28T11:08:29.890Z,7.24
2017-11-28T11:09:57.174Z,7.27
2017-11-28T11:11:24.551Z,7.33
2017-11-28T11:12:51.832Z,7.38
2017-11-28T11:14:19.136Z,7.41
2017-11-28T11:15:46.402Z,7.43
2017-11-28T11:17:13.687Z,7.43
2017-11-28T11:18:40.944Z,7.44
2017-11-28T11:20:08.091Z,7.49
2017-11-28T11:21:36.387Z,7.53
2017-11-28T11:23:02.334Z,7.60
2017-11-28T11:24:29.422Z,7.68
2017-11-28T11:25:56.470Z,7.72
2017-11-28T11:27:23.741Z,7.72
2017-11-28T11:28:50.800Z,7.68
2017-11-28T11:30:18.180Z,7.64
2017-11-28T11:31:45.263Z,7.58
2017-11-28T11:33:13.547Z,7.53
2017-11-28T11:34:40.934Z,7.50
2017-11-28T11:36:06.857Z,7.45
2017-11-28T11:37:34.152Z,7.42
2017-11-28T11:39:00.913Z,7.40
2017-11-28T11:40:29.097Z,7.39
2017-11-28T11:41:56.574Z,7.37
2017-11-28T11:43:22.841Z,7.36
2017-11-28T11:44:51.210Z,7.34
2017-11-28T11:46:17.475Z,7.32
2017-11-28T11:47:45.703Z,7.33
2017-11-28T11:49:12.091Z,7.33
2017-11-28T11:50:39.505Z,7.33
2017-11-28T11:52:07.720Z,7.32
2017-11-28T11:53:33.946Z,7.30
2017-11-28T11:55:01.058Z,7.30
2017-11-28T11:56:28.460Z,7.28
2017-11-28T11:57:55.834Z,7.28
2017-11-28T11:59:23.959Z,7.28
2017-11-28T12:00:51.465Z,7.27
2017-11-28T12:02:17.773Z,7.27
2017-11-28T12:03:45.176Z,7.27
2017-11-28T12:05:12.370Z,7.26
2017-11-28T12:06:39.723Z,7.25
2017-11-28T12:08:07.208Z,7.26
2017-11-28T12:09:34.365Z,7.25
2017-11-28T12:11:00.601Z,7.24
2017-11-28T12:12:28.941Z,7.23
2017-11-28T12:13:55.881Z,7.22
2017-11-28T12:15:22.178Z,7.22
2017-11-28T12:16:49.561Z,7.23
2017-11-28T12:18:16.772Z,7.23
2017-11-28T12:19:45.053Z,7.24
2017-11-28T12:21:11.340Z,7.25
2017-11-28T12:22:38.759Z,7.25
2017-11-28T12:24:05.880Z,7.25
2017-11-28T12:25:34.093Z,7.24
2017-11-28T12:27:01.182Z,7.23
2017-11-28T12:28:28.426Z,7.23
2017-11-28T12:29:54.662Z,7.23
2017-11-28T12:31:23.066Z,7.22
2017-11-28T12:32:50.405Z,7.23
2017-11-28T12:34:16.777Z,7.24
2017-11-28T12:35:43.896Z,7.25
2017-11-28T12:37:11.277Z,7.26
2017-11-28T12:38:39.732Z,7.28
2017-11-28T12:40:06.975Z,7.30
2017-11-28T12:41:34.127Z,7.31
2017-11-28T12:42:59.774Z,7.33
2017-11-28T12:44:26.896Z,7.34
2017-11-28T12:45:54.359Z,7.36
2017-11-28T12:47:21.582Z,7.38
2017-11-28T12:48:49.863Z,7.38
2017-11-28T12:50:16.969Z,7.38
2017-11-28T12:51:43.254Z,7.38
2017-11-28T12:53:11.465Z,7.37
2017-11-28T12:54:38.679Z,7.37
2017-11-28T12:56:04.580Z,7.37
2017-11-28T12:57:31.564Z,7.37
2017-11-28T12:58:58.620Z,7.37
2017-11-28T13:00:25.918Z,7.37
2017-11-28T13:01:53.268Z,7.37
2017-11-28T13:03:21.455Z,7.38
2017-11-28T13:04:48.916Z,7.38
2017-11-28T13:06:16.293Z,7.38
2017-11-28T13:07:42.614Z,7.38
2017-11-28T13:09:09.665Z,7.40
2017-11-28T13:10:37.884Z,7.40
2017-11-28T13:12:03.878Z,7.39
2017-11-28T13:13:32.241Z,7.39
2017-11-28T13:14:58.592Z,7.39
2017-11-28T13:16:25.487Z,7.39
2017-11-28T13:17:53.558Z,7.39
2017-11-28T13:19:19.755Z,7.39
2017-11-28T13:20:47.137Z,7.38
2017-11-28T13:22:14.487Z,7.38
2017-11-28T13:23:41.654Z,7.38
2017-11-28T13:25:09.840Z,7.38
2017-11-28T13:26:35.955Z,7.38
2017-11-28T13:28:04.277Z,7.38
2017-11-28T13:29:30.362Z,7.37
2017-11-28T13:30:58.626Z,7.37
2017-11-28T13:32:25.432Z,7.36
2017-11-28T13:33:52.796Z,7.35
2017-11-28T13:35:19.841Z,7.34
2017-11-28T13:36:46.350Z,7.33
2017-11-28T13:38:13.426Z,7.32
2017-11-28T13:39:40.713Z,7.32
2017-11-28T13:41:07.763Z,7.32
2017-11-28T13:42:34.760Z,7.32
2017-11-28T13:44:02.946Z,7.33
2017-11-28T13:45:28.930Z,7.32
2017-11-28T13:46:56.105Z,7.32
2017-11-28T13:48:24.222Z,7.31
2017-11-28T13:49:51.391Z,7.29
2017-11-28T13:51:17.533Z,7.29
2017-11-28T13:52:45.696Z,7.28
2017-11-28T13:54:17.638Z,7.26
2017-11-28T13:55:39.828Z,7.26
2017-11-28T13:57:05.945Z,7.25
2017-11-28T13:58:34.273Z,7.23
2017-11-28T14:00:01.423Z,7.23
2017-11-28T14:01:27.795Z,7.23
2017-11-28T14:02:55.101Z,7.21
2017-11-28T14:04:22.391Z,7.22
2017-11-28T14:05:49.814Z,7.22
2017-11-28T14:07:16.941Z,7.21
2017-11-28T14:08:44.162Z,7.21
2017-11-28T14:10:12.358Z,7.20
2017-11-28T14:11:39.899Z,7.18
2017-11-28T14:13:05.867Z,7.18
2017-11-28T14:14:34.225Z,7.18
2017-11-28T14:16:00.359Z,7.18
2017-11-28T14:17:27.665Z,7.18
2017-11-28T14:18:54.806Z,7.18
2017-11-28T14:20:23.065Z,7.18
2017-11-28T14:21:49.163Z,7.16
2017-11-28T14:23:17.541Z,7.17
2017-11-28T14:24:44.885Z,7.16
2017-11-28T14:26:11.232Z,7.16
2017-11-28T14:27:38.547Z,7.16
2017-11-28T14:29:05.743Z,7.17
2017-11-28T14:30:33.887Z,7.17
2017-11-28T14:32:01.111Z,7.18
2017-11-28T14:33:28.210Z,7.17
2017-11-28T14:34:54.260Z,7.18
2017-11-28T14:36:21.599Z,7.19
2017-11-28T14:37:48.751Z,7.17
2017-11-28T14:39:17.075Z,7.17
2017-11-28T14:40:43.353Z,7.17
2017-11-28T14:42:11.724Z,7.18
2017-11-28T14:43:37.950Z,7.19
2017-11-28T14:45:05.219Z,7.19
2017-11-28T14:46:32.244Z,7.19
2017-11-28T14:48:00.337Z,7.18
2017-11-28T14:49:27.480Z,7.16
2017-11-28T14:50:53.877Z,7.16
2017-11-28T14:52:22.239Z,7.15
2017-11-28T14:53:48.532Z,7.14
2017-11-28T14:55:15.774Z,7.14
2017-11-28T14:56:44.074Z,7.14
2017-11-28T14:58:10.312Z,7.14
2017-11-28T14:59:38.662Z,7.15
2017-11-28T15:01:04.721Z,7.15
2017-11-28T15:02:31.909Z,7.16
2017-11-28T15:03:59.932Z,7.16
2017-11-28T15:05:24.676Z,7.15
2017-11-28T15:06:53.049Z,7.15
2017-11-28T15:08:20.200Z,7.14
2017-11-28T15:09:46.397Z,7.13
2017-11-28T15:11:13.693Z,7.12
2017-11-28T15:12:41.928Z,7.11
2017-11-28T15:14:07.979Z,7.09
2017-11-28T15:15:36.065Z,7.10
2017-11-28T15:17:02.427Z,7.09
2017-11-28T15:18:29.662Z,7.09
2017-11-28T15:19:56.854Z,7.07
2017-11-28T15:21:25.260Z,7.07
2017-11-28T15:22:52.257Z,7.08
2017-11-28T15:24:18.481Z,7.08
2017-11-28T15:25:45.917Z,7.09
2017-11-28T15:27:13.325Z,7.10
2017-11-28T15:28:40.628Z,7.11
2017-11-28T15:30:07.791Z,7.11
2017-11-28T15:31:35.065Z,7.11
2017-11-28T15:33:03.193Z,7.11
2017-11-28T15:34:29.411Z,7.11
2017-11-28T15:35:56.599Z,7.11
2017-11-28T15:37:23.541Z,7.10
2017-11-28T15:38:50.581Z,7.10
2017-11-28T15:40:17.885Z,7.11
2017-11-28T15:41:44.867Z,7.10
2017-11-28T15:43:12.228Z,7.10
2017-11-28T15:44:40.540Z,7.09
2017-11-28T15:46:06.811Z,7.09
2017-11-28T15:47:33.938Z,7.08
2017-11-28T15:48:55.050Z,7.05
2017-11-28T15:50:29.296Z,7.03
2017-11-28T15:51:55.673Z,7.02
2017-11-28T15:53:23.052Z,7.03
2017-11-28T15:54:50.387Z,7.03
2017-11-28T15:56:17.598Z,7.04
2017-11-28T15:57:45.014Z,7.06
2017-11-28T15:59:13.209Z,7.06
2017-11-28T16:00:39.531Z,7.07
2017-11-28T16:02:06.832Z,7.07
2017-11-28T16:03:34.060Z,7.08
2017-11-28T16:05:02.234Z,7.10
2017-11-28T16:06:29.668Z,7.09
2017-11-28T16:07:57.035Z,7.09
2017-11-28T16:09:23.263Z,7.10
2017-11-28T16:10:51.609Z,7.10
2017-11-28T16:12:18.010Z,7.10
2017-11-28T16:13:45.303Z,7.10
2017-11-28T16:15:12.625Z,7.10
2017-11-28T16:16:40.964Z,7.10
2017-11-28T16:18:06.999Z,7.08
2017-11-28T16:19:35.092Z,7.08
2017-11-28T16:21:01.220Z,7.07
2017-11-28T16:22:28.511Z,7.06
2017-11-28T16:23:56.793Z,7.05
2017-11-28T16:25:23.099Z,7.05
2017-11-28T16:26:51.580Z,7.05
2017-11-28T16:28:18.747Z,7.06
2017-11-28T16:29:45.851Z,7.05
2017-11-28T16:31:13.069Z,7.04
2017-11-28T16:32:39.361Z,7.05
2017-11-28T16:34:06.602Z,7.05
2017-11-28T16:35:34.104Z,7.05
2017-11-28T16:37:02.267Z,7.04
2017-11-28T16:38:29.946Z,7.04
2017-11-28T16:39:56.251Z,7.03
2017-11-28T16:41:23.514Z,7.04
2017-11-28T16:42:50.748Z,7.05
2017-11-28T16:44:19.092Z,7.06
2017-11-28T16:45:45.482Z,7.07
2017-11-28T16:47:13.670Z,7.08
2017-11-28T16:48:39.927Z,7.08
2017-11-28T16:50:07.075Z,7.08
2017-11-28T16:51:34.473Z,7.09
2017-11-28T16:53:02.746Z,7.08
2017-11-28T16:54:28.804Z,7.08
2017-11-28T16:55:56.984Z,7.07
2017-11-28T16:57:23.093Z,7.06
2017-11-28T16:58:50.435Z,7.05
2017-11-28T17:00:18.655Z,7.04
2017-11-28T17:01:45.001Z,7.04
2017-11-28T17:03:12.152Z,7.01
2017-11-28T17:04:40.400Z,6.99
2017-11-28T17:06:06.625Z,6.97
2017-11-28T17:07:33.949Z,6.95
2017-11-28T17:09:02.216Z,6.94
2017-11-28T17:10:29.470Z,6.94
2017-11-28T17:11:55.575Z,6.94
2017-11-28T17:13:22.918Z,6.94
2017-11-28T17:14:51.501Z,6.94
2017-11-28T17:16:18.687Z,6.93
2017-11-28T17:17:45.944Z,6.92
2017-11-28T17:19:12.257Z,6.90
2017-11-28T17:20:39.568Z,6.90
2017-11-28T17:22:06.770Z,6.89
2017-11-28T17:23:34.147Z,6.87
2017-11-28T17:25:01.671Z,6.85
2017-11-28T17:26:29.599Z,6.85
2017-11-28T17:27:56.837Z,6.84
2017-11-28T17:29:23.046Z,6.84
2017-11-28T17:30:50.252Z,6.83
2017-11-28T17:32:17.466Z,6.83
2017-11-28T17:33:44.914Z,6.84
2017-11-28T17:35:12.032Z,6.84
2017-11-28T17:36:39.300Z,6.84
2017-11-28T17:38:07.823Z,6.85
2017-11-28T17:39:34.948Z,6.85
2017-11-28T17:41:00.998Z,6.86
2017-11-28T17:42:28.182Z,6.87
2017-11-28T17:43:55.361Z,6.87
2017-11-28T17:45:23.644Z,6.88
2017-11-28T17:46:49.768Z,6.88
2017-11-28T17:48:16.949Z,6.87
2017-11-28T17:49:45.171Z,6.88
2017-11-28T17:51:12.370Z,6.87
2017-11-28T17:52:38.684Z,6.86
2017-11-28T17:54:06.036Z,6.85
2017-11-28T17:55:33.262Z,6.84
2017-11-28T17:57:01.517Z,6.85
2017-11-28T17:58:27.793Z,6.85
2017-11-28T17:59:55.071Z,6.84
2017-11-28T18:01:23.213Z,6.84
2017-11-28T18:02:49.568Z,6.83
2017-11-28T18:04:17.857Z,6.83
2017-11-28T18:05:45.316Z,6.81
2017-11-28T18:07:11.672Z,6.81
2017-11-28T18:08:38.915Z,6.81
2017-11-28T18:10:06.182Z,6.81
2017-11-28T18:11:33.511Z,6.81
2017-11-28T18:13:00.920Z,6.82
2017-11-28T18:14:28.084Z,6.83
2017-11-28T18:15:55.245Z,6.84
2017-11-28T18:17:22.495Z,6.85
2017-11-28T18:18:49.866Z,6.84
2017-11-28T18:20:17.062Z,6.83
2017-11-28T18:21:44.354Z,6.82
2017-11-28T18:23:11.779Z,6.80
2017-11-28T18:24:40.099Z,6.79
2017-11-28T18:26:06.329Z,6.79
2017-11-28T18:27:34.442Z,6.79
2017-11-28T18:29:00.687Z,6.78
2017-11-28T18:30:27.896Z,6.77
2017-11-28T18:31:55.295Z,6.77
2017-11-28T18:33:22.550Z,6.77
2017-11-28T18:34:50.940Z,6.77
2017-11-28T18:36:17.996Z,6.77
2017-11-28T18:37:44.291Z,6.77
2017-11-28T18:39:12.443Z,6.77
2017-11-28T18:40:38.720Z,6.77
2017-11-28T18:42:05.990Z,6.77
2017-11-28T18:43:34.308Z,6.78
2017-11-28T18:45:00.413Z,6.78
2017-11-28T18:46:27.790Z,6.78
2017-11-28T18:47:54.858Z,6.78
2017-11-28T18:49:23.056Z,6.78
2017-11-28T18:50:50.300Z,6.77
2017-11-28T18:52:16.577Z,6.77
2017-11-28T18:53:45.042Z,6.78
2017-11-28T18:55:11.116Z,6.79
2017-11-28T18:56:38.459Z,6.80
2017-11-28T18:58:06.687Z,6.80
2017-11-28T18:59:33.817Z,6.78
2017-11-28T19:01:00.287Z,6.78
2017-11-28T19:02:27.678Z,6.78
2017-11-28T19:03:54.881Z,6.78
2017-11-28T19:05:22.091Z,6.78
2017-11-28T19:06:49.273Z,6.78
2017-11-28T19:08:16.636Z,6.77
2017-11-28T19:09:44.681Z,6.77
2017-11-28T19:11:11.083Z,6.76
2017-11-28T19:12:39.379Z,6.76
2017-11-28T19:14:05.505Z,6.75
2017-11-28T19:15:33.579Z,6.74
2017-11-28T19:16:59.712Z,6.73
2017-11-28T19:18:27.969Z,6.73
2017-11-28T19:19:54.038Z,6.73